Ruby Indah — 9VND — position and weather

sailwx.info

Track history (hours):
 
Tides and Currents Weather Stations Pressure Air Temp Water Temp Dewpoint Dewpoint Depression Visibility Wind Speed Wind Dir Waves Ship Positions

Ruby Indah

Last reported at 2015-Oct-28 02:05 UTC. Time now 2016-Feb-07 21:44 UTC.
Position N 37°59' E 120°18'.
Warning: this ship's position is months out of date.

Length 229 m; draft 7.1 m.

Type: Cargo ship. MMSI: 564748000.

Date/timePositionNaut miles runAvg speedWind from/ knotsBaromVisibWave heightAir tempDewpointWater temp
2015-Oct-28 02:05N 37°59' E 120°18'710.8
2015-Oct-28 01:28N 37°54' E 120°12'1010.4
2015-Oct-28 00:30N 37°44' E 120°10'8 8.5
2015-Oct-27 23:33N 37°39' E 120°17'0 0.1
2015-Oct-27 18:26N 37°39' E 120°17'0 0.0
2015-Oct-27 16:32N 37°39' E 120°17'0 0.0
2015-Oct-27 15:08N 37°39' E 120°17'0 0.0
2015-Oct-27 14:31N 37°39' E 120°17'0 0.0
2015-Oct-27 13:25N 37°39' E 120°17'0 0.0
2015-Oct-27 12:19N 37°39' E 120°17'0 0.0
2015-Oct-27 08:25N 37°39' E 120°17'0 0.0
2015-Oct-27 05:19N 37°39' E 120°17'0 0.0
2015-Oct-27 04:25N 37°39' E 120°17'0 0.0
2015-Oct-27 03:19N 37°39' E 120°17'0 0.0
2015-Oct-27 01:25N 37°39' E 120°17'0 0.0
2015-Oct-26 23:13N 37°39' E 120°17'0 0.0
2015-Oct-26 22:25N 37°39' E 120°17'0 0.0
2015-Oct-26 20:19N 37°39' E 120°17'0 0.0
2015-Oct-26 19:25N 37°39' E 120°17'0 0.0
2015-Oct-26 18:13N 37°39' E 120°17'0 0.0
2015-Oct-26 15:25N 37°39' E 120°17'0 0.0
2015-Oct-26 14:25N 37°39' E 120°17'0 0.0
2015-Oct-26 13:19N 37°39' E 120°17'0 0.0
2015-Oct-26 11:13N 37°39' E 120°17'0 0.0
2015-Oct-26 07:31N 37°39' E 120°17'0 0.0
2015-Oct-25 22:12N 37°39' E 120°17'0 0.0
2015-Oct-25 20:24N 37°39' E 120°17'0 0.0
2015-Oct-25 19:30N 37°39' E 120°17'0 0.0
2015-Oct-25 06:18N 37°39' E 120°17'0 0.0
2015-Oct-25 02:30N 37°39' E 120°17'4 3.9
2015-Oct-25 01:32N 37°40' E 120°13'5 5.1
2015-Oct-25 00:28N 37°45' E 120°10'2 2.2
2015-Oct-24 23:30N 37°48' E 120°11'8 8.7
2015-Oct-24 22:33N 37°55' E 120°08'3 0.2
2015-Oct-24 07:22N 37°52' E 120°08'3 3.4
2015-Oct-24 06:33N 37°50' E 120°09'4 3.6
2015-Oct-24 05:29N 37°46' E 120°10'1 0.1
2015-Oct-23 23:21N 37°46' E 120°11'0 0.1
2015-Oct-23 22:27N 37°46' E 120°11'0 0.1
2015-Oct-23 19:21N 37°46' E 120°11'0 0.0
2015-Oct-23 16:15N 37°46' E 120°11'0 0.0
2015-Oct-23 15:09N 37°46' E 120°11'0 0.1
2015-Oct-23 14:27N 37°46' E 120°11'5 0.3
2015-Oct-22 21:28N 37°50' E 120°07'0 0.5
2015-Oct-22 20:33N 37°50' E 120°06'5 5.1
2015-Oct-22 19:33N 37°55' E 120°06'10 9.9
2015-Oct-22 18:30N 38°01' E 120°17'  
Track history (hours):
 
Tides and Currents Weather Stations Pressure Air Temp Water Temp Dewpoint Dewpoint Depression Visibility Wind Speed Wind Dir Waves Ship Positions

Ruby Indah

Last reported at 2015-Oct-28 02:05 UTC. Time now 2016-Feb-07 21:44 UTC.
Position N 37°59' E 120°18'.
Warning: this ship's position is months out of date.

Length 229 m; draft 7.1 m.

Type: Cargo ship. MMSI: 564748000.

Date/timePositionNaut miles runAvg speedWind from/ knotsBaromVisibWave heightAir tempDewpointWater temp
2015-Oct-28 02:05N 37°59' E 120°18'710.8
2015-Oct-28 01:28N 37°54' E 120°12'1010.4
2015-Oct-28 00:30N 37°44' E 120°10'8 8.5
2015-Oct-27 23:33N 37°39' E 120°17'0 0.1
2015-Oct-27 18:26N 37°39' E 120°17'0 0.0
2015-Oct-27 16:32N 37°39' E 120°17'0 0.0
2015-Oct-27 15:08N 37°39' E 120°17'0 0.0
2015-Oct-27 14:31N 37°39' E 120°17'0 0.0
2015-Oct-27 13:25N 37°39' E 120°17'0 0.0
2015-Oct-27 12:19N 37°39' E 120°17'0 0.0
2015-Oct-27 08:25N 37°39' E 120°17'0 0.0
2015-Oct-27 05:19N 37°39' E 120°17'0 0.0
2015-Oct-27 04:25N 37°39' E 120°17'0 0.0
2015-Oct-27 03:19N 37°39' E 120°17'0 0.0
2015-Oct-27 01:25N 37°39' E 120°17'0 0.0
2015-Oct-26 23:13N 37°39' E 120°17'0 0.0
2015-Oct-26 22:25N 37°39' E 120°17'0 0.0
2015-Oct-26 20:19N 37°39' E 120°17'0 0.0
2015-Oct-26 19:25N 37°39' E 120°17'0 0.0
2015-Oct-26 18:13N 37°39' E 120°17'0 0.0
2015-Oct-26 15:25N 37°39' E 120°17'0 0.0
2015-Oct-26 14:25N 37°39' E 120°17'0 0.0
2015-Oct-26 13:19N 37°39' E 120°17'0 0.0
2015-Oct-26 11:13N 37°39' E 120°17'0 0.0
2015-Oct-26 07:31N 37°39' E 120°17'0 0.0
2015-Oct-25 22:12N 37°39' E 120°17'0 0.0
2015-Oct-25 20:24N 37°39' E 120°17'0 0.0
2015-Oct-25 19:30N 37°39' E 120°17'0 0.0
2015-Oct-25 06:18N 37°39' E 120°17'0 0.0
2015-Oct-25 02:30N 37°39' E 120°17'4 3.9
2015-Oct-25 01:32N 37°40' E 120°13'5 5.1
2015-Oct-25 00:28N 37°45' E 120°10'2 2.2
2015-Oct-24 23:30N 37°48' E 120°11'8 8.7
2015-Oct-24 22:33N 37°55' E 120°08'3 0.2
2015-Oct-24 07:22N 37°52' E 120°08'3 3.4
2015-Oct-24 06:33N 37°50' E 120°09'4 3.6
2015-Oct-24 05:29N 37°46' E 120°10'1 0.1
2015-Oct-23 23:21N 37°46' E 120°11'0 0.1
2015-Oct-23 22:27N 37°46' E 120°11'0 0.1
2015-Oct-23 19:21N 37°46' E 120°11'0 0.0
2015-Oct-23 16:15N 37°46' E 120°11'0 0.0
2015-Oct-23 15:09N 37°46' E 120°11'0 0.1
2015-Oct-23 14:27N 37°46' E 120°11'5 0.3
2015-Oct-22 21:28N 37°50' E 120°07'0 0.5
2015-Oct-22 20:33N 37°50' E 120°06'5 5.1
2015-Oct-22 19:33N 37°55' E 120°06'10 9.9
2015-Oct-22 18:30N 38°01' E 120°17'  

Dump ship's entire track history